createdAt,value
2023-07-19T00:00:30.174Z,7.50
2023-07-19T00:03:18.105Z,5.60
2023-07-19T00:05:46.190Z,6.10
2023-07-19T00:08:15.661Z,5.30
2023-07-19T00:10:43.764Z,7.50
2023-07-19T00:13:11.804Z,6.90
2023-07-19T00:15:39.760Z,7.20
2023-07-19T00:18:07.819Z,11.70
2023-07-19T00:20:35.834Z,9.30
2023-07-19T00:23:03.952Z,7.20
2023-07-19T00:25:32.856Z,17.10
2023-07-19T00:28:00.796Z,7.50
2023-07-19T00:30:29.461Z,9.30
2023-07-19T00:32:57.761Z,11.20
2023-07-19T00:35:27.363Z,9.00
2023-07-19T00:37:55.546Z,9.70
2023-07-19T00:40:23.683Z,5.60
2023-07-19T00:42:58.680Z,7.20
2023-07-19T00:45:27.958Z,6.90
2023-07-19T00:47:57.985Z,6.70
2023-07-19T00:50:26.040Z,7.00
2023-07-19T00:52:54.171Z,7.40
2023-07-19T00:55:22.214Z,6.10
2023-07-19T00:57:50.313Z,5.00
2023-07-19T01:00:19.602Z,7.90
2023-07-19T01:02:47.818Z,7.20
2023-07-19T01:05:17.552Z,5.70
2023-07-19T01:07:45.876Z,7.20
2023-07-19T01:10:14.496Z,7.50
2023-07-19T01:12:42.531Z,9.00
2023-07-19T01:15:11.243Z,7.10
2023-07-19T01:17:39.392Z,9.10
2023-07-19T01:20:09.878Z,9.70
2023-07-19T01:22:38.005Z,7.20
2023-07-19T01:25:06.641Z,9.00
2023-07-19T01:27:34.558Z,7.90
2023-07-19T01:30:02.616Z,9.70
2023-07-19T01:32:30.697Z,9.90
2023-07-19T01:34:58.967Z,11.00
2023-07-19T01:37:29.398Z,11.40
2023-07-19T01:39:57.411Z,9.40
2023-07-19T01:42:25.458Z,8.10
2023-07-19T01:44:55.107Z,10.60
2023-07-19T01:47:23.291Z,8.20
2023-07-19T01:49:51.296Z,8.90
2023-07-19T01:52:20.024Z,8.10
2023-07-19T01:54:48.148Z,8.40
2023-07-19T01:57:16.398Z,8.80
2023-07-19T01:59:44.727Z,6.30
2023-07-19T02:02:12.990Z,9.50
2023-07-19T02:04:42.558Z,10.70
2023-07-19T02:07:10.720Z,8.30
2023-07-19T02:09:38.739Z,6.30
2023-07-19T02:12:07.367Z,7.70
2023-07-19T02:14:35.620Z,7.80
2023-07-19T02:17:04.575Z,8.90
2023-07-19T02:19:34.823Z,9.70
2023-07-19T02:22:02.894Z,11.60
2023-07-19T02:24:31.296Z,10.30
2023-07-19T02:26:59.903Z,10.40
2023-07-19T02:29:27.996Z,11.20
2023-07-19T02:31:56.514Z,12.30
2023-07-19T02:34:24.550Z,24.20
2023-07-19T02:36:52.748Z,14.80
2023-07-19T02:39:22.171Z,10.20
2023-07-19T02:41:50.199Z,9.60
2023-07-19T02:44:18.317Z,9.30
2023-07-19T02:46:46.688Z,8.40
2023-07-19T02:49:15.050Z,9.50
2023-07-19T02:51:43.114Z,7.50
2023-07-19T02:54:11.533Z,6.80
2023-07-19T02:56:39.689Z,7.30
2023-07-19T02:59:07.757Z,8.50
2023-07-19T03:01:37.628Z,7.30
2023-07-19T03:04:07.858Z,7.40
2023-07-19T03:06:36.213Z,7.10
2023-07-19T03:09:04.412Z,7.40
2023-07-19T03:11:32.415Z,8.70
2023-07-19T03:14:00.541Z,7.10
2023-07-19T03:16:28.677Z,12.10
2023-07-19T03:18:56.760Z,11.20
2023-07-19T03:21:24.910Z,8.50
2023-07-19T03:23:52.957Z,9.60
2023-07-19T03:26:20.963Z,7.70
2023-07-19T03:28:49.564Z,7.90
2023-07-19T03:31:18.100Z,9.60
2023-07-19T03:33:46.450Z,6.10
2023-07-19T03:36:14.461Z,9.40
2023-07-19T03:38:42.617Z,6.00
2023-07-19T03:41:11.578Z,7.10
2023-07-19T03:43:40.022Z,6.10
2023-07-19T03:46:09.282Z,8.70
2023-07-19T03:48:39.349Z,8.00
2023-07-19T03:51:07.913Z,10.30
2023-07-19T03:53:36.111Z,13.30
2023-07-19T03:56:04.593Z,11.10
2023-07-19T03:58:33.712Z,12.20
2023-07-19T04:01:04.324Z,20.00
2023-07-19T04:03:32.683Z,11.20
2023-07-19T04:06:00.971Z,17.70
2023-07-19T04:08:29.150Z,10.30
2023-07-19T04:10:57.207Z,18.80
2023-07-19T04:13:28.949Z,45.10
2023-07-19T04:15:57.370Z,25.50
2023-07-19T04:18:28.353Z,42.40
2023-07-19T04:20:58.696Z,90.60
2023-07-19T04:23:29.060Z,28.10
2023-07-19T04:25:57.234Z,40.80
2023-07-19T04:28:25.472Z,14.80
2023-07-19T04:30:53.597Z,25.00
2023-07-19T04:33:21.814Z,18.30
2023-07-19T04:35:52.150Z,42.50
2023-07-19T04:38:23.675Z,12.90
2023-07-19T04:40:51.761Z,12.50
2023-07-19T04:43:26.673Z,10.00
2023-07-19T04:45:56.781Z,13.80
2023-07-19T04:48:26.576Z,14.80
2023-07-19T04:50:57.845Z,22.60
2023-07-19T04:53:26.756Z,14.10
2023-07-19T04:55:57.453Z,11.90
2023-07-19T04:58:27.444Z,11.60
2023-07-19T05:00:55.664Z,11.60
2023-07-19T05:03:23.736Z,7.90
2023-07-19T05:05:51.712Z,11.30
2023-07-19T05:08:20.268Z,9.40
2023-07-19T05:10:48.268Z,8.20
2023-07-19T05:13:16.431Z,8.30
2023-07-19T05:15:44.546Z,7.70
2023-07-19T05:18:15.337Z,8.30
2023-07-19T05:20:43.545Z,10.00
2023-07-19T05:23:13.398Z,6.70
2023-07-19T05:25:41.613Z,11.20
2023-07-19T05:28:09.630Z,7.20
2023-07-19T05:30:37.660Z,12.00
2023-07-19T05:33:05.709Z,11.80
2023-07-19T05:35:35.058Z,8.00
2023-07-19T05:38:04.577Z,12.50
2023-07-19T05:40:32.770Z,12.10
2023-07-19T05:43:00.832Z,11.00
2023-07-19T05:45:28.944Z,8.80
2023-07-19T05:47:57.027Z,10.10
2023-07-19T05:50:25.091Z,9.00
2023-07-19T05:52:53.185Z,10.60
2023-07-19T05:55:21.201Z,10.00
2023-07-19T05:57:49.346Z,10.90
2023-07-19T06:00:25.987Z,10.50
2023-07-19T06:02:55.879Z,14.40
2023-07-19T06:05:26.134Z,13.60
2023-07-19T06:07:54.502Z,10.80
2023-07-19T06:10:22.714Z,11.80
2023-07-19T06:12:51.442Z,14.90
2023-07-19T06:15:19.544Z,13.10
2023-07-19T06:17:48.018Z,11.90
2023-07-19T06:20:16.078Z,14.60
2023-07-19T06:22:45.115Z,17.30
2023-07-19T06:25:13.407Z,12.20
2023-07-19T06:27:41.638Z,21.90
2023-07-19T06:30:11.356Z,7.60
2023-07-19T06:32:39.759Z,8.50
2023-07-19T06:35:10.505Z,16.70
2023-07-19T06:37:40.287Z,10.40
2023-07-19T06:40:09.340Z,10.20
2023-07-19T06:42:37.638Z,9.00
2023-07-19T06:45:06.431Z,6.40
2023-07-19T06:47:34.500Z,9.00
2023-07-19T06:50:03.022Z,7.90
2023-07-19T06:52:31.013Z,11.00
2023-07-19T06:54:58.967Z,8.50
2023-07-19T06:57:26.971Z,7.70
2023-07-19T06:59:55.017Z,6.70
2023-07-19T07:02:23.009Z,7.80
2023-07-19T07:04:51.687Z,13.30
2023-07-19T07:07:20.781Z,7.60
2023-07-19T07:09:48.951Z,5.70
2023-07-19T07:12:17.101Z,7.00
2023-07-19T07:14:45.179Z,6.30
2023-07-19T07:17:13.309Z,5.60
2023-07-19T07:19:41.415Z,8.60
2023-07-19T07:22:09.406Z,5.00
2023-07-19T07:24:37.390Z,6.20
2023-07-19T07:27:06.366Z,6.30
2023-07-19T07:29:34.331Z,5.20
2023-07-19T07:32:02.383Z,5.20
2023-07-19T07:34:30.489Z,8.20
2023-07-19T07:36:58.567Z,5.70
2023-07-19T07:39:26.587Z,4.60
2023-07-19T07:41:54.646Z,6.10
2023-07-19T07:44:22.776Z,4.10
2023-07-19T07:46:51.345Z,8.80
2023-07-19T07:49:19.390Z,5.90
2023-07-19T07:51:47.458Z,5.20
2023-07-19T07:54:15.581Z,3.20
2023-07-19T07:56:43.579Z,5.70
2023-07-19T07:59:11.627Z,4.80
2023-07-19T08:01:39.652Z,6.10
2023-07-19T08:04:10.338Z,5.90
2023-07-19T08:06:39.923Z,7.30
2023-07-19T08:09:07.940Z,5.10
2023-07-19T08:11:36.045Z,5.00
2023-07-19T08:14:04.095Z,6.60
2023-07-19T08:16:32.095Z,6.80
2023-07-19T08:19:00.196Z,4.90
2023-07-19T08:21:36.026Z,5.40
2023-07-19T08:24:05.604Z,4.50
2023-07-19T08:26:33.572Z,4.30
2023-07-19T08:29:01.583Z,7.00
2023-07-19T08:31:29.759Z,5.60
2023-07-19T08:33:57.999Z,5.80
2023-07-19T08:36:26.154Z,2.70
2023-07-19T08:38:54.351Z,4.90
2023-07-19T08:41:24.559Z,5.70
2023-07-19T08:43:56.823Z,6.20
2023-07-19T08:46:25.876Z,6.10
2023-07-19T08:48:54.068Z,4.80
2023-07-19T08:51:22.922Z,3.30
2023-07-19T08:53:51.129Z,4.60
2023-07-19T08:56:21.615Z,6.60
2023-07-19T08:58:49.678Z,4.20
2023-07-19T09:01:17.806Z,5.60
2023-07-19T09:03:46.125Z,4.20
2023-07-19T09:06:24.008Z,4.60
2023-07-19T09:08:53.319Z,4.10
2023-07-19T09:11:24.537Z,5.30
2023-07-19T09:13:57.621Z,5.10
2023-07-19T09:16:31.208Z,3.80
2023-07-19T09:19:00.904Z,3.50
2023-07-19T09:21:43.647Z,5.50
2023-07-19T09:24:13.204Z,3.90
2023-07-19T09:26:58.837Z,6.90
2023-07-19T09:29:32.154Z,6.00
2023-07-19T09:32:03.468Z,5.40
2023-07-19T09:34:39.444Z,6.20
2023-07-19T09:37:07.581Z,3.70
2023-07-19T09:39:36.436Z,3.10
2023-07-19T09:42:05.765Z,3.50
2023-07-19T09:44:35.064Z,3.40
2023-07-19T09:47:14.427Z,6.20
2023-07-19T09:49:47.047Z,4.20
2023-07-19T09:52:18.911Z,4.10
2023-07-19T09:54:47.140Z,3.20
2023-07-19T09:57:18.393Z,5.20
2023-07-19T09:59:51.217Z,2.90
2023-07-19T10:02:22.688Z,3.60
2023-07-19T10:04:52.456Z,4.10
2023-07-19T10:07:22.456Z,4.60
2023-07-19T10:09:53.679Z,4.10
2023-07-19T10:12:26.485Z,7.90
2023-07-19T10:15:01.457Z,3.40
2023-07-19T10:17:33.363Z,3.90
2023-07-19T10:20:14.263Z,3.40
2023-07-19T10:22:58.940Z,4.20
2023-07-19T10:25:29.201Z,5.10
2023-07-19T10:27:58.250Z,3.20
2023-07-19T10:30:45.586Z,3.40
2023-07-19T10:33:25.682Z,4.30
2023-07-19T10:35:56.818Z,4.50
2023-07-19T10:38:27.522Z,4.50
2023-07-19T10:41:04.273Z,4.30
2023-07-19T10:46:08.273Z,4.70
2023-07-19T10:48:41.578Z,4.80
2023-07-19T10:51:12.803Z,2.70
2023-07-19T10:53:41.844Z,3.80
2023-07-19T10:56:10.084Z,3.30
2023-07-19T10:58:38.527Z,4.90
2023-07-19T11:01:07.500Z,6.20
2023-07-19T11:03:35.819Z,7.60
2023-07-19T11:06:08.537Z,9.30
2023-07-19T11:08:36.673Z,4.90
2023-07-19T11:11:05.198Z,5.80
2023-07-19T11:13:33.911Z,13.30
2023-07-19T11:16:02.455Z,7.20
2023-07-19T11:18:36.416Z,6.10
2023-07-19T11:21:05.297Z,7.30
2023-07-19T11:23:39.617Z,3.70
2023-07-19T11:26:13.063Z,4.40
2023-07-19T11:28:54.030Z,6.10
2023-07-19T11:31:42.223Z,4.60
2023-07-19T11:34:17.801Z,3.30
2023-07-19T11:36:47.896Z,5.10
2023-07-19T11:39:22.580Z,3.80
2023-07-19T11:41:50.899Z,4.70
2023-07-19T11:44:21.775Z,3.00
2023-07-19T11:46:50.622Z,4.70
2023-07-19T11:49:19.663Z,4.20
2023-07-19T11:51:48.328Z,8.10
2023-07-19T11:54:16.574Z,5.90
2023-07-19T11:56:44.862Z,6.00
2023-07-19T11:59:12.868Z,5.20
2023-07-19T12:01:41.569Z,4.50
2023-07-19T12:04:10.260Z,3.70
2023-07-19T12:06:38.586Z,3.40
2023-07-19T12:09:06.622Z,5.20
2023-07-19T12:11:34.675Z,3.00
2023-07-19T12:14:03.545Z,3.10
2023-07-19T12:16:31.716Z,4.10
2023-07-19T12:18:59.851Z,3.50
2023-07-19T12:21:28.238Z,5.00
2023-07-19T12:23:59.566Z,4.50
2023-07-19T12:28:59.301Z,4.20
2023-07-19T12:31:27.586Z,4.70
2023-07-19T12:33:58.195Z,3.40
2023-07-19T12:36:26.405Z,3.60
2023-07-19T12:38:56.312Z,3.10
2023-07-19T12:41:24.350Z,3.60
2023-07-19T12:43:52.449Z,4.40
2023-07-19T12:46:21.218Z,5.80
2023-07-19T12:48:52.635Z,3.70
2023-07-19T12:51:21.293Z,3.30
2023-07-19T12:53:50.585Z,5.60
2023-07-19T12:56:19.690Z,5.30
2023-07-19T12:58:48.320Z,2.40
2023-07-19T13:01:16.884Z,2.80
2023-07-19T13:03:45.328Z,4.30
2023-07-19T13:06:13.505Z,3.00
2023-07-19T13:08:41.916Z,5.10
2023-07-19T13:11:10.282Z,3.30
2023-07-19T13:13:38.326Z,2.90
2023-07-19T13:16:06.381Z,3.60
2023-07-19T13:18:34.536Z,2.80
2023-07-19T13:21:02.624Z,3.00
2023-07-19T13:23:30.650Z,3.60
2023-07-19T13:25:58.767Z,2.20
2023-07-19T13:28:26.977Z,2.70
2023-07-19T13:30:59.324Z,2.40
2023-07-19T13:33:29.089Z,3.50
2023-07-19T13:36:00.045Z,3.20
2023-07-19T13:38:29.002Z,3.10
2023-07-19T13:40:57.075Z,3.30
2023-07-19T13:43:25.370Z,1.90
2023-07-19T13:45:53.628Z,3.40
2023-07-19T13:48:21.710Z,3.10
2023-07-19T13:50:49.698Z,2.70
2023-07-19T13:53:17.637Z,2.30
2023-07-19T13:55:45.637Z,2.20
2023-07-19T13:58:15.109Z,3.60
2023-07-19T14:00:43.386Z,3.10
2023-07-19T14:03:13.185Z,3.70
2023-07-19T14:05:41.386Z,2.50
2023-07-19T14:08:10.119Z,2.70
2023-07-19T14:10:38.512Z,4.30
2023-07-19T14:13:08.521Z,4.60
2023-07-19T14:15:37.451Z,3.10
2023-07-19T14:18:16.586Z,3.30
2023-07-19T14:20:46.313Z,4.20
2023-07-19T14:23:14.599Z,3.00
2023-07-19T14:25:42.807Z,3.90
2023-07-19T14:28:11.467Z,4.50
2023-07-19T14:30:40.808Z,4.50
2023-07-19T14:33:09.497Z,5.00
2023-07-19T14:35:37.695Z,2.80
2023-07-19T14:38:05.780Z,3.50
2023-07-19T14:40:38.397Z,3.10
2023-07-19T14:43:06.523Z,4.70
2023-07-19T14:45:36.142Z,3.50
2023-07-19T14:48:04.725Z,4.20
2023-07-19T14:50:32.888Z,3.10
2023-07-19T14:53:08.179Z,8.00
2023-07-19T14:55:36.415Z,4.50
2023-07-19T14:58:04.386Z,3.70
2023-07-19T15:03:03.397Z,4.70
2023-07-19T15:05:31.547Z,3.60
2023-07-19T15:07:59.551Z,6.20
2023-07-19T15:10:27.571Z,5.40
2023-07-19T15:12:57.138Z,6.10
2023-07-19T15:15:25.624Z,4.30
2023-07-19T15:17:54.549Z,3.40
2023-07-19T15:20:23.767Z,2.50
2023-07-19T15:22:55.290Z,3.20
2023-07-19T15:25:24.516Z,4.00
2023-07-19T15:27:52.862Z,4.00
2023-07-19T15:30:21.183Z,2.80
2023-07-19T15:32:49.263Z,3.30
2023-07-19T15:35:17.449Z,3.20
2023-07-19T15:37:45.754Z,4.30
2023-07-19T15:40:14.081Z,6.50
2023-07-19T15:42:42.081Z,3.20
2023-07-19T15:45:12.472Z,3.70
2023-07-19T15:47:40.810Z,3.10
2023-07-19T15:50:09.506Z,3.90
2023-07-19T15:52:37.962Z,4.20
2023-07-19T15:55:06.497Z,4.20
2023-07-19T15:57:34.559Z,3.50
2023-07-19T16:00:02.665Z,5.30
2023-07-19T16:02:33.629Z,3.20
2023-07-19T16:05:01.788Z,4.80
2023-07-19T16:07:29.927Z,3.40
2023-07-19T16:09:58.031Z,3.20
2023-07-19T16:12:26.189Z,3.50
2023-07-19T16:14:54.249Z,3.40
2023-07-19T16:17:22.287Z,5.90
2023-07-19T16:19:50.622Z,3.40
2023-07-19T16:22:18.656Z,6.60
2023-07-19T16:24:46.649Z,5.10
2023-07-19T16:27:14.692Z,4.10
2023-07-19T16:29:42.693Z,4.10
2023-07-19T16:32:10.833Z,3.40
2023-07-19T16:34:38.915Z,3.50
2023-07-19T16:37:07.458Z,4.40
2023-07-19T16:39:35.733Z,3.90
2023-07-19T16:42:05.337Z,6.40
2023-07-19T16:44:33.348Z,2.90
2023-07-19T16:47:01.480Z,4.00
2023-07-19T16:49:29.523Z,4.70
2023-07-19T16:51:59.087Z,6.40
2023-07-19T16:54:27.166Z,4.30
2023-07-19T16:56:55.212Z,5.00
2023-07-19T16:59:23.893Z,3.80
2023-07-19T17:01:52.026Z,4.00
2023-07-19T17:04:20.100Z,5.60
2023-07-19T17:06:48.371Z,3.50
2023-07-19T17:09:16.376Z,3.90
2023-07-19T17:11:44.451Z,4.20
2023-07-19T17:14:12.587Z,5.80
2023-07-19T17:16:40.530Z,4.00
2023-07-19T17:19:15.805Z,3.80
2023-07-19T17:21:46.242Z,4.60
2023-07-19T17:24:14.473Z,5.20
2023-07-19T17:26:42.676Z,4.10
2023-07-19T17:29:10.706Z,4.00
2023-07-19T17:31:38.729Z,3.70
2023-07-19T17:34:06.822Z,5.00
2023-07-19T17:36:34.919Z,2.90
2023-07-19T17:39:02.862Z,4.00
2023-07-19T17:41:30.926Z,4.20
2023-07-19T17:43:59.948Z,3.50
2023-07-19T17:46:28.057Z,3.80
2023-07-19T17:48:56.101Z,3.90
2023-07-19T17:51:24.258Z,3.20
2023-07-19T17:53:52.427Z,5.50
2023-07-19T17:56:20.499Z,6.10
2023-07-19T17:58:51.395Z,5.40
2023-07-19T18:01:20.941Z,5.50
2023-07-19T18:03:49.819Z,4.50
2023-07-19T18:06:19.362Z,5.40
2023-07-19T18:08:47.396Z,5.10
2023-07-19T18:11:15.552Z,7.10
2023-07-19T18:13:43.657Z,4.90
2023-07-19T18:16:11.652Z,6.30
2023-07-19T18:18:39.729Z,4.40
2023-07-19T18:21:07.717Z,4.20
2023-07-19T18:23:38.532Z,5.30
2023-07-19T18:26:06.698Z,7.60
2023-07-19T18:28:36.432Z,6.40
2023-07-19T18:31:04.809Z,6.60
2023-07-19T18:33:33.361Z,7.40
2023-07-19T18:36:01.380Z,4.70
2023-07-19T18:38:29.553Z,7.70
2023-07-19T18:40:57.929Z,5.60
2023-07-19T18:43:26.066Z,5.20
2023-07-19T18:45:55.764Z,5.90
2023-07-19T18:48:24.228Z,5.40
2023-07-19T18:50:52.252Z,5.60
2023-07-19T18:53:26.202Z,5.30
2023-07-19T18:55:54.273Z,5.10
2023-07-19T18:58:22.334Z,5.80
2023-07-19T19:00:50.428Z,5.50
2023-07-19T19:03:18.579Z,4.50
2023-07-19T19:05:47.717Z,5.50
2023-07-19T19:08:17.175Z,7.60
2023-07-19T19:10:45.597Z,6.30
2023-07-19T19:13:13.635Z,5.00
2023-07-19T19:15:41.977Z,5.90
2023-07-19T19:18:10.523Z,5.20
2023-07-19T19:20:38.638Z,6.20
2023-07-19T19:23:08.785Z,5.90
2023-07-19T19:25:36.866Z,5.40
2023-07-19T19:30:50.484Z,8.00
2023-07-19T19:33:18.817Z,8.20
2023-07-19T19:35:46.873Z,6.60
2023-07-19T19:38:15.322Z,7.50
2023-07-19T19:40:43.594Z,5.80
2023-07-19T19:43:11.570Z,7.20
2023-07-19T19:45:39.567Z,7.60
2023-07-19T19:48:07.769Z,6.30
2023-07-19T19:50:35.787Z,7.70
2023-07-19T19:53:10.473Z,7.20
2023-07-19T19:58:12.226Z,7.70
2023-07-19T20:00:41.766Z,7.60
2023-07-19T20:08:12.782Z,6.70
2023-07-19T20:10:59.185Z,6.70
2023-07-19T20:13:28.075Z,7.90
2023-07-19T20:16:00.878Z,6.00
2023-07-19T20:21:01.121Z,5.60
2023-07-19T20:23:29.511Z,7.50
2023-07-19T20:26:11.886Z,6.30
2023-07-19T20:28:41.574Z,8.90
2023-07-19T20:31:09.547Z,7.30
2023-07-19T20:33:41.833Z,7.10
2023-07-19T20:36:45.643Z,5.80
2023-07-19T20:38:59.702Z,5.10
2023-07-19T20:43:58.975Z,6.20
2023-07-19T20:46:26.956Z,7.40
2023-07-19T20:49:04.379Z,7.10
2023-07-19T20:51:34.334Z,7.10
2023-07-19T20:54:06.553Z,5.60
2023-07-19T20:56:37.173Z,6.00
2023-07-19T20:59:08.569Z,5.40
2023-07-19T21:01:40.054Z,7.80
2023-07-19T21:04:08.704Z,6.20
2023-07-19T21:06:39.869Z,8.10
2023-07-19T21:09:07.932Z,6.70
2023-07-19T21:11:36.536Z,7.00
2023-07-19T21:14:04.744Z,5.50
2023-07-19T21:16:33.398Z,5.90
2023-07-19T21:19:01.517Z,5.80
2023-07-19T21:21:29.746Z,6.70
2023-07-19T21:23:57.777Z,6.00
2023-07-19T21:26:26.155Z,6.90
2023-07-19T21:28:54.160Z,8.60
2023-07-19T21:31:27.399Z,8.60
2023-07-19T21:33:58.119Z,8.30
2023-07-19T21:36:26.323Z,7.10
2023-07-19T21:38:54.264Z,9.30
2023-07-19T21:41:22.446Z,7.10
2023-07-19T21:43:50.758Z,6.80
2023-07-19T21:46:18.979Z,7.60
2023-07-19T21:48:47.151Z,7.80
2023-07-19T21:51:15.290Z,9.30
2023-07-19T21:53:43.208Z,7.50
2023-07-19T21:56:11.110Z,7.30
2023-07-19T21:58:39.151Z,8.20
2023-07-19T22:01:07.200Z,6.50
2023-07-19T22:03:35.260Z,6.70
2023-07-19T22:06:03.822Z,8.60
2023-07-19T22:08:31.935Z,10.20
2023-07-19T22:10:59.996Z,8.30
2023-07-19T22:13:28.122Z,8.80
2023-07-19T22:15:56.031Z,9.50
2023-07-19T22:18:27.584Z,7.10
2023-07-19T22:21:07.210Z,10.30
2023-07-19T22:23:44.034Z,7.40
2023-07-19T22:26:12.032Z,7.60
2023-07-19T22:28:40.137Z,8.20
2023-07-19T22:31:08.173Z,8.10
2023-07-19T22:33:36.214Z,8.00
2023-07-19T22:36:04.740Z,9.20
2023-07-19T22:38:33.157Z,8.80
2023-07-19T22:41:01.132Z,9.40
2023-07-19T22:43:29.822Z,10.80
2023-07-19T22:45:57.853Z,10.20
2023-07-19T22:48:25.904Z,9.90
2023-07-19T22:50:54.009Z,7.80
2023-07-19T22:53:22.362Z,8.00
2023-07-19T22:55:50.493Z,6.20
2023-07-19T22:58:18.457Z,7.50
2023-07-19T23:00:48.183Z,7.70
2023-07-19T23:03:16.257Z,7.20
2023-07-19T23:05:44.212Z,10.20
2023-07-19T23:08:12.159Z,10.00
2023-07-19T23:10:40.144Z,8.80
2023-07-19T23:13:08.220Z,12.60
2023-07-19T23:15:36.198Z,8.50
2023-07-19T23:18:04.213Z,10.50
2023-07-19T23:20:32.308Z,11.00
2023-07-19T23:23:01.329Z,10.00
2023-07-19T23:25:29.426Z,7.70
2023-07-19T23:28:01.173Z,10.10
2023-07-19T23:30:29.520Z,8.70
2023-07-19T23:32:58.974Z,8.60
2023-07-19T23:35:27.110Z,8.70
2023-07-19T23:37:56.013Z,9.80
2023-07-19T23:40:24.415Z,10.40
2023-07-19T23:42:52.834Z,10.90
2023-07-19T23:45:20.923Z,11.10
2023-07-19T23:47:49.962Z,11.50
2023-07-19T23:50:18.308Z,9.40
2023-07-19T23:52:46.324Z,11.20
2023-07-19T23:55:14.485Z,11.00
2023-07-19T23:57:42.377Z,10.70
